Time;durP1;ratioP1;P1;durP2;ratioP2;P2;SDS_P1;SDS_P2;PMS_P1;PMS_P2;Temp;Humidity;BMP_temperature;BMP_pressure;BME280_temperature;BME280_humidity;BME280_pressure;Samples;Min_cycle;Max_cycle;Signal;HPM_P1;HPM_P2
2022/05/17 00:00:05;;;;;;;15.96;6.52;;;;;;;;;;364045;148;857762;-60
2022/05/17 00:01:06;;;;;;;12.23;5.97;;;;;;;;;;364008;148;866657;-59
2022/05/17 00:02:08;;;;;;;15.30;6.45;;;;;;;;;;364180;148;860188;-60
2022/05/17 00:03:09;;;;;;;11.01;5.57;;;;;;;;;;363956;148;865819;-59
2022/05/17 00:04:11;;;;;;;10.04;5.24;;;;;;;;;;364047;146;858013;-60
2022/05/17 00:05:13;;;;;;;12.67;6.13;;;;;;;;;;364446;147;857100;-59
2022/05/17 00:06:15;;;;;;;13.14;5.80;;;;;;;;;;364314;147;857568;-59
2022/05/17 00:07:17;;;;;;;13.80;6.90;;;;;;;;;;364384;146;865747;-59
2022/05/17 00:08:18;;;;;;;13.28;6.18;;;;;;;;;;359030;150;865266;-59
2022/05/17 00:09:20;;;;;;;12.58;5.51;;;;;;;;;;358927;150;858448;-60
2022/05/17 00:10:22;;;;;;;12.65;5.54;;;;;;;;;;359279;146;857326;-60
2022/05/17 00:11:24;;;;;;;12.01;5.37;;;;;;;;;;366692;146;857223;-60
2022/05/17 00:12:26;;;;;;;11.13;5.61;;;;;;;;;;360243;146;857696;-60
2022/05/17 00:13:27;;;;;;;11.86;5.44;;;;;;;;;;360171;149;859519;-60
2022/05/17 00:14:29;;;;;;;14.27;5.73;;;;;;;;;;360160;149;857831;-59
2022/05/17 00:15:31;;;;;;;10.94;6.04;;;;;;;;;;360237;149;857464;-61
2022/05/17 00:16:32;;;;;;;13.23;5.72;;;;;;;;;;360215;149;865375;-59
2022/05/17 00:17:34;;;;;;;14.11;5.24;;;;;;;;;;360144;149;858993;-58
2022/05/17 00:18:36;;;;;;;12.58;5.31;;;;;;;;;;360598;145;858208;-59
2022/05/17 00:19:37;;;;;;;14.72;6.20;;;;;;;;;;368462;146;866246;-60
2022/05/17 00:20:41;;;;;;;11.66;5.57;;;;;;;;;;368492;146;866742;-61
2022/05/17 00:21:46;;;;;;;13.36;5.19;;;;;;;;;;368438;145;865844;-60
2022/05/17 00:22:47;;;;;;;9.33;5.42;;;;;;;;;;360339;145;857263;-60
2022/05/17 00:23:49;;;;;;;13.14;5.34;;;;;;;;;;360257;149;857401;-61
2022/05/17 00:24:51;;;;;;;10.05;5.73;;;;;;;;;;360211;149;858735;-60
2022/05/17 00:25:53;;;;;;;10.50;5.20;;;;;;;;;;361263;149;857567;-60
2022/05/17 00:26:55;;;;;;;14.69;5.69;;;;;;;;;;361756;148;857189;-59
2022/05/17 00:27:56;;;;;;;9.79;4.67;;;;;;;;;;361834;148;858169;-59
2022/05/17 00:28:58;;;;;;;10.72;5.05;;;;;;;;;;361903;146;858797;-59
2022/05/17 00:29:59;;;;;;;12.41;5.55;;;;;;;;;;366787;146;864878;-60
2022/05/17 00:31:01;;;;;;;10.24;5.26;;;;;;;;;;367041;146;857148;-60
2022/05/17 00:32:03;;;;;;;12.88;4.96;;;;;;;;;;363097;146;865014;-61
2022/05/17 00:33:05;;;;;;;9.79;4.92;;;;;;;;;;360416;149;857399;-60
2022/05/17 00:34:07;;;;;;;11.56;5.51;;;;;;;;;;360531;146;857938;-61
2022/05/17 00:35:09;;;;;;;10.92;5.54;;;;;;;;;;360486;146;867215;-61
2022/05/17 00:36:11;;;;;;;12.24;4.98;;;;;;;;;;361217;146;865003;-60
2022/05/17 00:37:13;;;;;;;10.44;4.89;;;;;;;;;;362166;148;857577;-59
2022/05/17 00:38:15;;;;;;;9.71;5.07;;;;;;;;;;366273;147;857353;-60
2022/05/17 00:39:16;;;;;;;12.70;5.14;;;;;;;;;;360433;146;857246;-61
2022/05/17 00:40:18;;;;;;;10.57;5.00;;;;;;;;;;360365;149;866676;-62
2022/05/17 00:41:20;;;;;;;8.67;4.73;;;;;;;;;;362645;146;857639;-62
2022/05/17 00:42:22;;;;;;;12.68;4.94;;;;;;;;;;360513;146;857243;-60
2022/05/17 00:43:25;;;;;;;11.15;4.49;;;;;;;;;;360305;147;859016;-59
2022/05/17 00:45:47;;;;;;;12.05;4.71;;;;;;;;;;360210;149;857305;-60
2022/05/17 00:47:09;;;;;;;10.45;4.65;;;;;;;;;;360354;149;857267;-60
2022/05/17 00:48:11;;;;;;;11.78;4.59;;;;;;;;;;360181;146;857568;-59
2022/05/17 00:49:14;;;;;;;12.63;4.54;;;;;;;;;;360285;149;857116;-60
2022/05/17 00:50:22;;;;;;;11.76;4.78;;;;;;;;;;359941;149;857223;-60
2022/05/17 00:51:24;;;;;;;10.75;4.10;;;;;;;;;;359932;149;857749;-60
2022/05/17 00:52:28;;;;;;;13.09;5.58;;;;;;;;;;360066;149;857248;-60
2022/05/17 00:53:32;;;;;;;11.83;3.94;;;;;;;;;;360188;146;865003;-61
2022/05/17 00:54:34;;;;;;;9.32;4.31;;;;;;;;;;360076;149;857638;-60
2022/05/17 00:55:42;;;;;;;8.94;4.47;;;;;;;;;;360226;149;857203;-59
2022/05/17 00:56:46;;;;;;;9.07;5.09;;;;;;;;;;359971;149;865466;-59
2022/05/17 00:57:49;;;;;;;9.40;4.84;;;;;;;;;;361121;149;857248;-60
2022/05/17 00:58:51;;;;;;;8.92;4.12;;;;;;;;;;361707;148;857246;-60
2022/05/17 00:59:53;;;;;;;13.07;4.27;;;;;;;;;;364053;148;857197;-60
2022/05/17 01:01:02;;;;;;;8.34;4.39;;;;;;;;;;357642;150;857200;-59
2022/05/17 01:02:04;;;;;;;9.97;4.73;;;;;;;;;;350113;151;864735;-60
2022/05/17 01:03:07;;;;;;;10.54;5.09;;;;;;;;;;354900;151;859818;-60
2022/05/17 01:04:11;;;;;;;9.60;4.06;;;;;;;;;;347801;152;857476;-60
2022/05/17 01:05:12;;;;;;;9.50;4.80;;;;;;;;;;344728;156;857279;-60
2022/05/17 01:06:15;;;;;;;9.18;4.63;;;;;;;;;;352586;152;857103;-61
2022/05/17 01:07:17;;;;;;;11.33;4.59;;;;;;;;;;352629;153;857373;-60
2022/05/17 01:08:19;;;;;;;11.75;4.43;;;;;;;;;;343016;157;857693;-61
2022/05/17 01:09:21;;;;;;;8.17;4.19;;;;;;;;;;346328;155;857511;-61
2022/05/17 01:10:27;;;;;;;11.19;4.21;;;;;;;;;;350880;153;859028;-59
2022/05/17 01:11:28;;;;;;;10.48;4.73;;;;;;;;;;350689;153;860740;-60
2022/05/17 01:12:30;;;;;;;9.12;4.31;;;;;;;;;;353933;150;858974;-59
2022/05/17 01:14:57;;;;;;;10.29;4.07;;;;;;;;;;348987;153;863659;-60
2022/05/17 01:15:59;;;;;;;8.37;4.03;;;;;;;;;;352278;153;859003;-63
2022/05/17 01:17:00;;;;;;;9.78;4.19;;;;;;;;;;357266;150;858750;-60
2022/05/17 01:18:03;;;;;;;8.58;4.47;;;;;;;;;;348937;153;865225;-59
2022/05/17 01:19:04;;;;;;;9.73;4.13;;;;;;;;;;350902;153;857217;-59
2022/05/17 01:20:08;;;;;;;11.97;4.89;;;;;;;;;;346321;155;859615;-58
2022/05/17 01:21:10;;;;;;;11.25;4.24;;;;;;;;;;350842;153;857210;-61
2022/05/17 01:22:12;;;;;;;6.63;3.80;;;;;;;;;;346321;155;858932;-59
2022/05/17 01:23:14;;;;;;;10.90;4.00;;;;;;;;;;350897;151;860487;-60
2022/05/17 01:24:15;;;;;;;12.01;4.11;;;;;;;;;;346137;155;865685;-60
2022/05/17 01:25:17;;;;;;;8.24;4.16;;;;;;;;;;350952;151;857961;-60
2022/05/17 01:26:20;;;;;;;13.01;3.82;;;;;;;;;;351967;151;857631;-60
2022/05/17 01:27:29;;;;;;;7.80;3.11;;;;;;;;;;365983;145;857164;-60
2022/05/17 01:28:31;;;;;;;10.39;3.84;;;;;;;;;;370736;145;857612;-61
2022/05/17 01:29:39;;;;;;;8.37;3.88;;;;;;;;;;370600;145;857197;-59
2022/05/17 01:30:41;;;;;;;6.24;3.52;;;;;;;;;;371294;145;858611;-60
2022/05/17 01:31:43;;;;;;;7.98;3.94;;;;;;;;;;369745;145;857892;-59
2022/05/17 01:32:44;;;;;;;8.75;3.58;;;;;;;;;;364687;147;858014;-59
2022/05/17 01:33:46;;;;;;;8.28;3.69;;;;;;;;;;366667;145;857374;-61
2022/05/17 01:34:47;;;;;;;10.83;4.22;;;;;;;;;;371458;145;866646;-60
2022/05/17 01:35:49;;;;;;;7.99;3.86;;;;;;;;;;370865;145;857707;-59
2022/05/17 01:36:50;;;;;;;7.24;3.87;;;;;;;;;;367377;145;858961;-60
2022/05/17 01:37:54;;;;;;;8.43;4.42;;;;;;;;;;367043;145;864873;-60
2022/05/17 01:38:56;;;;;;;7.99;3.71;;;;;;;;;;364541;147;858488;-60
2022/05/17 01:39:57;;;;;;;7.84;3.56;;;;;;;;;;364605;147;864799;-59
2022/05/17 01:40:59;;;;;;;8.69;3.77;;;;;;;;;;364662;147;859545;-59
2022/05/17 01:42:01;;;;;;;8.28;3.80;;;;;;;;;;364649;147;865490;-60
2022/05/17 01:43:02;;;;;;;9.34;3.93;;;;;;;;;;364552;147;865088;-59
2022/05/17 01:44:04;;;;;;;6.45;3.40;;;;;;;;;;365459;145;866499;-60
2022/05/17 01:45:06;;;;;;;6.19;3.64;;;;;;;;;;369564;145;857688;-60
2022/05/17 01:46:08;;;;;;;9.91;3.70;;;;;;;;;;369630;145;864756;-60
2022/05/17 01:47:11;;;;;;;10.19;3.93;;;;;;;;;;367762;145;859521;-61
2022/05/17 01:48:12;;;;;;;7.71;3.91;;;;;;;;;;364651;145;858833;-59
2022/05/17 01:49:14;;;;;;;7.18;3.35;;;;;;;;;;364538;147;859512;-59
2022/05/17 01:50:16;;;;;;;7.40;3.47;;;;;;;;;;364447;147;864704;-60
2022/05/17 01:51:17;;;;;;;7.87;3.89;;;;;;;;;;364484;147;864900;-60
2022/05/17 01:52:19;;;;;;;10.83;4.33;;;;;;;;;;364435;147;865239;-59
2022/05/17 01:53:20;;;;;;;8.09;3.93;;;;;;;;;;364500;147;857253;-62
2022/05/17 01:54:23;;;;;;;6.40;3.56;;;;;;;;;;365798;147;864699;-59
2022/05/17 01:55:24;;;;;;;8.64;3.93;;;;;;;;;;365915;145;857250;-60
2022/05/17 01:56:26;;;;;;;10.54;3.94;;;;;;;;;;371171;145;858958;-60
2022/05/17 01:57:27;;;;;;;8.48;4.59;;;;;;;;;;371049;145;865494;-59
2022/05/17 01:58:29;;;;;;;11.32;3.80;;;;;;;;;;370565;145;857381;-60
2022/05/17 01:59:31;;;;;;;9.83;3.93;;;;;;;;;;373835;143;857325;-60
2022/05/17 02:00:33;;;;;;;8.49;4.22;;;;;;;;;;376117;143;860444;-60
2022/05/17 02:01:35;;;;;;;7.37;3.66;;;;;;;;;;376118;142;857306;-60
2022/05/17 02:02:37;;;;;;;12.31;3.50;;;;;;;;;;375985;142;861254;-58
2022/05/17 02:03:39;;;;;;;8.99;4.01;;;;;;;;;;376089;143;857311;-59
2022/05/17 02:04:42;;;;;;;6.02;3.27;;;;;;;;;;368545;142;856282;-59
2022/05/17 02:05:43;;;;;;;9.70;3.80;;;;;;;;;;367567;146;857517;-60
2022/05/17 02:06:45;;;;;;;8.75;3.56;;;;;;;;;;370324;145;859698;-60
2022/05/17 02:07:49;;;;;;;8.39;3.39;;;;;;;;;;371314;145;866854;-60
2022/05/17 02:08:50;;;;;;;7.06;3.65;;;;;;;;;;371291;145;857264;-60
2022/05/17 02:09:52;;;;;;;7.45;3.75;;;;;;;;;;371366;145;858290;-60
2022/05/17 02:10:53;;;;;;;7.26;3.64;;;;;;;;;;371384;145;857228;-59
2022/05/17 02:11:55;;;;;;;8.34;5.04;;;;;;;;;;368633;143;865316;-62
2022/05/17 02:12:57;;;;;;;6.73;3.46;;;;;;;;;;368392;146;857263;-59
2022/05/17 02:13:59;;;;;;;11.37;3.99;;;;;;;;;;366771;145;857213;-60
2022/05/17 02:15:00;;;;;;;6.65;3.69;;;;;;;;;;364555;147;857614;-61
2022/05/17 02:16:03;;;;;;;6.09;3.23;;;;;;;;;;364528;147;858850;-62
2022/05/17 02:17:05;;;;;;;6.69;3.30;;;;;;;;;;364555;147;858925;-61
2022/05/17 02:18:06;;;;;;;8.21;3.75;;;;;;;;;;364582;147;857625;-59
2022/05/17 02:19:07;;;;;;;8.20;3.42;;;;;;;;;;364724;147;858090;-60
2022/05/17 02:20:09;;;;;;;6.96;3.34;;;;;;;;;;366652;145;860383;-60
2022/05/17 02:21:11;;;;;;;6.07;3.51;;;;;;;;;;370589;145;866643;-60
2022/05/17 02:22:13;;;;;;;8.81;3.55;;;;;;;;;;365669;145;865572;-59
2022/05/17 02:23:14;;;;;;;6.77;3.54;;;;;;;;;;364563;147;857283;-60
2022/05/17 02:24:16;;;;;;;7.24;3.71;;;;;;;;;;364501;147;857068;-61
2022/05/17 02:25:17;;;;;;;8.57;3.79;;;;;;;;;;364718;147;857228;-60
2022/05/17 02:26:19;;;;;;;8.58;3.21;;;;;;;;;;366030;147;864797;-59
2022/05/17 02:27:20;;;;;;;10.32;3.66;;;;;;;;;;363039;145;865601;-61
2022/05/17 02:28:22;;;;;;;6.66;3.34;;;;;;;;;;366464;146;860077;-59
2022/05/17 02:29:24;;;;;;;4.94;2.84;;;;;;;;;;366870;146;865557;-60
2022/05/17 02:30:26;;;;;;;8.83;3.67;;;;;;;;;;363665;146;858294;-60
2022/05/17 02:31:27;;;;;;;6.07;2.87;;;;;;;;;;361884;146;858995;-59
2022/05/17 02:32:29;;;;;;;7.81;3.45;;;;;;;;;;360527;146;857876;-59
2022/05/17 02:33:30;;;;;;;6.36;3.22;;;;;;;;;;361602;146;858333;-61
2022/05/17 02:34:34;;;;;;;7.75;3.31;;;;;;;;;;360424;149;860059;-59
2022/05/17 02:35:35;;;;;;;9.21;3.24;;;;;;;;;;360507;146;858819;-59
2022/05/17 02:36:37;;;;;;;6.04;3.05;;;;;;;;;;360412;149;857140;-60
2022/05/17 02:37:39;;;;;;;10.49;2.93;;;;;;;;;;361110;146;866216;-60
2022/05/17 02:38:41;;;;;;;7.13;3.16;;;;;;;;;;361462;146;859852;-59
2022/05/17 02:39:45;;;;;;;5.35;2.79;;;;;;;;;;367129;146;856326;-61
2022/05/17 02:40:46;;;;;;;7.48;2.96;;;;;;;;;;366984;146;858292;-60
2022/05/17 02:41:48;;;;;;;6.04;2.81;;;;;;;;;;367147;146;857406;-59
2022/05/17 02:42:50;;;;;;;8.31;2.79;;;;;;;;;;366853;146;864851;-60
2022/05/17 02:43:53;;;;;;;7.54;2.51;;;;;;;;;;364565;146;857281;-60
2022/05/17 02:44:54;;;;;;;6.66;2.79;;;;;;;;;;360341;149;857062;-60
2022/05/17 02:45:56;;;;;;;6.58;2.75;;;;;;;;;;360354;149;859376;-61
2022/05/17 02:46:58;;;;;;;12.64;3.11;;;;;;;;;;361930;146;857342;-59
2022/05/17 02:47:59;;;;;;;5.09;2.85;;;;;;;;;;366816;146;864781;-59
2022/05/17 02:49:01;;;;;;;6.95;2.59;;;;;;;;;;367180;146;857196;-61
2022/05/17 02:50:03;;;;;;;5.97;2.33;;;;;;;;;;365085;146;857150;-60
2022/05/17 02:51:12;;;;;;;4.87;2.77;;;;;;;;;;363366;148;857628;-61
2022/05/17 02:52:13;;;;;;;5.68;2.53;;;;;;;;;;363106;148;857115;-59
2022/05/17 02:53:15;;;;;;;8.81;2.66;;;;;;;;;;363322;148;857547;-59
2022/05/17 02:54:16;;;;;;;5.59;2.49;;;;;;;;;;363758;148;857284;-59
2022/05/17 02:55:18;;;;;;;6.09;2.93;;;;;;;;;;363763;146;860185;-59
2022/05/17 02:56:20;;;;;;;6.56;2.76;;;;;;;;;;360466;146;859685;-60
2022/05/17 02:57:21;;;;;;;5.69;2.74;;;;;;;;;;360447;149;860172;-60
2022/05/17 02:58:23;;;;;;;7.73;2.47;;;;;;;;;;360534;146;860038;-57
2022/05/17 02:59:24;;;;;;;4.75;2.90;;;;;;;;;;360407;149;860418;-59
2022/05/17 03:00:26;;;;;;;4.75;2.35;;;;;;;;;;361059;146;857716;-60
2022/05/17 03:01:28;;;;;;;5.59;2.45;;;;;;;;;;367098;146;864789;-60
2022/05/17 03:02:30;;;;;;;6.99;2.61;;;;;;;;;;367098;146;857191;-60
2022/05/17 03:03:31;;;;;;;8.59;2.23;;;;;;;;;;366870;146;857276;-59
2022/05/17 03:04:33;;;;;;;6.97;2.19;;;;;;;;;;365072;146;857319;-60
2022/05/17 03:05:34;;;;;;;8.21;2.55;;;;;;;;;;364412;147;864808;-59
2022/05/17 03:06:36;;;;;;;4.51;2.37;;;;;;;;;;366655;146;857266;-61
2022/05/17 03:07:38;;;;;;;3.31;2.04;;;;;;;;;;367034;146;864733;-60
2022/05/17 03:08:40;;;;;;;6.46;2.19;;;;;;;;;;366925;146;864820;-60
2022/05/17 03:09:41;;;;;;;5.63;1.94;;;;;;;;;;368693;145;856525;-61
2022/05/17 03:10:43;;;;;;;8.06;2.09;;;;;;;;;;371374;145;864830;-60
2022/05/17 03:11:45;;;;;;;4.86;1.77;;;;;;;;;;371345;145;864887;-60
2022/05/17 03:12:46;;;;;;;4.63;1.94;;;;;;;;;;371411;145;857747;-59
2022/05/17 03:13:48;;;;;;;4.75;1.97;;;;;;;;;;371442;145;857340;-60
2022/05/17 03:14:49;;;;;;;6.94;2.28;;;;;;;;;;371489;145;857392;-62
2022/05/17 03:15:51;;;;;;;4.94;2.24;;;;;;;;;;371393;145;857355;-59
2022/05/17 03:16:52;;;;;;;8.47;2.23;;;;;;;;;;371507;145;858219;-59
2022/05/17 03:17:54;;;;;;;5.82;1.96;;;;;;;;;;371423;145;866089;-60
2022/05/17 03:18:55;;;;;;;8.50;2.27;;;;;;;;;;366688;145;859540;-60
2022/05/17 03:19:57;;;;;;;5.79;2.59;;;;;;;;;;363533;146;858626;-61
2022/05/17 03:20:58;;;;;;;5.23;1.96;;;;;;;;;;366980;146;859116;-58
2022/05/17 03:22:00;;;;;;;3.99;1.95;;;;;;;;;;366863;146;866146;-59
2022/05/17 03:23:01;;;;;;;4.76;2.11;;;;;;;;;;366988;146;860117;-59
2022/05/17 03:24:03;;;;;;;4.84;1.89;;;;;;;;;;367068;146;864784;-60
2022/05/17 03:25:06;;;;;;;3.73;1.75;;;;;;;;;;367100;146;857160;-62
2022/05/17 03:26:07;;;;;;;4.48;2.12;;;;;;;;;;362069;146;857254;-59
2022/05/17 03:27:09;;;;;;;4.30;1.82;;;;;;;;;;357381;150;857313;-59
2022/05/17 03:28:11;;;;;;;4.32;1.76;;;;;;;;;;362102;145;865401;-61
2022/05/17 03:29:12;;;;;;;3.37;1.81;;;;;;;;;;369651;145;864657;-61
2022/05/17 03:30:14;;;;;;;5.28;2.31;;;;;;;;;;369994;145;857222;-60
2022/05/17 03:31:16;;;;;;;4.30;1.91;;;;;;;;;;371531;145;857004;-60
2022/05/17 03:32:17;;;;;;;7.79;2.11;;;;;;;;;;365646;145;866577;-59
2022/05/17 03:33:19;;;;;;;6.36;2.12;;;;;;;;;;369415;145;859005;-60
2022/05/17 03:34:20;;;;;;;4.59;2.02;;;;;;;;;;365318;145;859364;-59
2022/05/17 03:35:22;;;;;;;4.00;1.73;;;;;;;;;;364718;147;858950;-61
2022/05/17 03:36:24;;;;;;;3.91;2.03;;;;;;;;;;371290;145;859207;-61
2022/05/17 03:37:25;;;;;;;3.73;1.96;;;;;;;;;;369784;145;857388;-61
2022/05/17 03:38:27;;;;;;;5.36;1.72;;;;;;;;;;371564;145;857237;-59
2022/05/17 03:39:28;;;;;;;3.56;1.87;;;;;;;;;;371233;145;857244;-60
2022/05/17 03:40:30;;;;;;;6.85;2.00;;;;;;;;;;364614;147;864807;-59
2022/05/17 03:41:32;;;;;;;9.20;2.30;;;;;;;;;;365212;145;857180;-59
2022/05/17 03:42:33;;;;;;;3.14;1.78;;;;;;;;;;371555;145;857189;-59
2022/05/17 03:43:35;;;;;;;9.49;2.09;;;;;;;;;;371078;145;857158;-60
2022/05/17 03:44:36;;;;;;;5.79;1.93;;;;;;;;;;366388;145;857315;-62
2022/05/17 03:45:38;;;;;;;3.71;1.66;;;;;;;;;;365934;145;857207;-60
2022/05/17 03:46:39;;;;;;;3.91;1.67;;;;;;;;;;371536;145;864711;-59
2022/05/17 03:47:41;;;;;;;4.19;1.66;;;;;;;;;;371239;145;863870;-61
2022/05/17 03:48:42;;;;;;;5.52;2.11;;;;;;;;;;370675;145;857376;-60
2022/05/17 03:49:44;;;;;;;2.51;1.68;;;;;;;;;;369116;145;857203;-63
2022/05/17 03:50:46;;;;;;;3.06;1.54;;;;;;;;;;364699;147;857336;-61
2022/05/17 03:51:48;;;;;;;2.71;1.44;;;;;;;;;;366936;145;864490;-60
2022/05/17 03:52:49;;;;;;;5.99;1.84;;;;;;;;;;371551;145;857839;-63
2022/05/17 03:53:51;;;;;;;4.51;1.66;;;;;;;;;;369440;145;857279;-59
2022/05/17 03:54:56;;;;;;;4.14;1.57;;;;;;;;;;365463;145;857090;-61
2022/05/17 03:55:57;;;;;;;4.29;1.63;;;;;;;;;;364403;147;866617;-60
2022/05/17 03:56:59;;;;;;;2.76;1.57;;;;;;;;;;364688;147;857135;-59
2022/05/17 03:58:01;;;;;;;4.79;1.69;;;;;;;;;;364728;147;858951;-60
2022/05/17 03:59:02;;;;;;;6.51;1.91;;;;;;;;;;364909;147;858873;-60
2022/05/17 04:00:06;;;;;;;3.86;1.84;;;;;;;;;;365751;145;858218;-60
2022/05/17 04:01:08;;;;;;;5.22;1.78;;;;;;;;;;364471;147;864892;-61
2022/05/17 04:02:09;;;;;;;2.79;1.41;;;;;;;;;;364686;147;857168;-62
2022/05/17 04:03:11;;;;;;;5.61;1.41;;;;;;;;;;364601;147;860722;-60
2022/05/17 04:04:12;;;;;;;5.35;1.40;;;;;;;;;;367057;145;857130;-60
2022/05/17 04:05:14;;;;;;;3.17;1.39;;;;;;;;;;367547;146;857619;-60
2022/05/17 04:06:16;;;;;;;3.69;1.57;;;;;;;;;;367490;146;857122;-60
2022/05/17 04:07:18;;;;;;;6.01;1.51;;;;;;;;;;367636;146;857159;-62
2022/05/17 04:08:19;;;;;;;3.68;1.46;;;;;;;;;;367579;146;857217;-61
2022/05/17 04:09:21;;;;;;;2.22;1.24;;;;;;;;;;367491;146;857189;-59
2022/05/17 04:10:23;;;;;;;4.62;1.18;;;;;;;;;;369275;145;857228;-60
2022/05/17 04:11:24;;;;;;;2.77;1.45;;;;;;;;;;371396;145;857270;-62
2022/05/17 04:12:26;;;;;;;4.76;1.56;;;;;;;;;;371320;145;859067;-59
2022/05/17 04:13:29;;;;;;;3.58;1.46;;;;;;;;;;371240;145;858081;-60
2022/05/17 04:14:31;;;;;;;1.99;1.48;;;;;;;;;;371260;145;857712;-60
2022/05/17 04:15:32;;;;;;;2.06;1.39;;;;;;;;;;371427;145;858871;-59
2022/05/17 04:16:34;;;;;;;5.54;1.39;;;;;;;;;;371427;145;859097;-60
2022/05/17 04:17:36;;;;;;;2.47;1.27;;;;;;;;;;371312;145;864738;-61
2022/05/17 04:18:37;;;;;;;5.39;1.36;;;;;;;;;;371438;145;857702;-59
2022/05/17 04:19:39;;;;;;;2.26;1.34;;;;;;;;;;371330;145;857237;-62
2022/05/17 04:20:41;;;;;;;7.11;2.30;;;;;;;;;;371265;145;857222;-62
2022/05/17 04:21:43;;;;;;;4.02;1.52;;;;;;;;;;371464;145;857403;-60
2022/05/17 04:22:45;;;;;;;4.87;1.37;;;;;;;;;;370957;145;857300;-60
2022/05/17 04:23:47;;;;;;;4.79;1.90;;;;;;;;;;370278;145;857392;-58
2022/05/17 04:24:51;;;;;;;6.05;1.75;;;;;;;;;;376129;143;857402;-60
2022/05/17 04:25:52;;;;;;;3.78;1.34;;;;;;;;;;367733;143;857352;-60
2022/05/17 04:26:54;;;;;;;3.44;1.33;;;;;;;;;;371494;145;858668;-60
2022/05/17 04:27:56;;;;;;;2.42;1.22;;;;;;;;;;370885;144;864583;-61
2022/05/17 04:28:57;;;;;;;3.41;1.63;;;;;;;;;;359790;147;857150;-60
2022/05/17 04:29:59;;;;;;;5.09;1.42;;;;;;;;;;359643;147;857095;-59
2022/05/17 04:31:01;;;;;;;3.45;1.25;;;;;;;;;;359346;150;857212;-60
2022/05/17 04:32:03;;;;;;;5.69;1.75;;;;;;;;;;363051;147;866268;-60
2022/05/17 04:33:05;;;;;;;4.68;1.31;;;;;;;;;;365653;147;864767;-59
2022/05/17 04:34:07;;;;;;;3.37;1.46;;;;;;;;;;365787;147;857249;-59
2022/05/17 04:35:09;;;;;;;7.09;1.53;;;;;;;;;;366023;147;857129;-59
2022/05/17 04:36:11;;;;;;;4.86;1.43;;;;;;;;;;362856;147;858893;-59
2022/05/17 04:37:13;;;;;;;2.96;1.46;;;;;;;;;;360506;148;860653;-59
2022/05/17 04:38:14;;;;;;;3.71;1.43;;;;;;;;;;360975;147;857446;-59
2022/05/17 04:39:16;;;;;;;4.09;1.69;;;;;;;;;;359449;147;857151;-60
2022/05/17 04:40:18;;;;;;;2.45;1.28;;;;;;;;;;359379;147;865255;-60
2022/05/17 04:41:20;;;;;;;2.37;1.01;;;;;;;;;;359246;150;864671;-60
2022/05/17 04:42:21;;;;;;;2.86;1.46;;;;;;;;;;360900;147;865723;-60
2022/05/17 04:43:23;;;;;;;3.97;1.72;;;;;;;;;;365782;147;865792;-60
2022/05/17 04:44:25;;;;;;;6.43;1.37;;;;;;;;;;365743;147;865649;-62
2022/05/17 04:45:27;;;;;;;2.99;1.11;;;;;;;;;;365692;147;859592;-59
2022/05/17 04:46:28;;;;;;;7.90;1.57;;;;;;;;;;365853;147;857435;-61
2022/05/17 04:47:30;;;;;;;4.41;1.51;;;;;;;;;;365579;147;865436;-60
2022/05/17 04:48:31;;;;;;;1.78;1.04;;;;;;;;;;365716;147;857335;-60
2022/05/17 04:49:33;;;;;;;2.66;1.33;;;;;;;;;;365797;147;860741;-61
2022/05/17 04:50:35;;;;;;;1.87;1.17;;;;;;;;;;365852;147;858515;-61
2022/05/17 04:51:36;;;;;;;3.13;1.49;;;;;;;;;;357942;150;865566;-60
2022/05/17 04:52:38;;;;;;;4.42;2.44;;;;;;;;;;358035;147;858647;-60
2022/05/17 04:53:40;;;;;;;2.87;1.21;;;;;;;;;;365213;147;857170;-59
2022/05/17 04:54:42;;;;;;;2.17;0.95;;;;;;;;;;359980;149;857337;-62
2022/05/17 04:55:43;;;;;;;1.55;1.03;;;;;;;;;;360040;149;857335;-60
2022/05/17 04:56:45;;;;;;;2.11;1.17;;;;;;;;;;360018;149;857340;-63
2022/05/17 04:57:47;;;;;;;3.14;1.13;;;;;;;;;;360058;149;857393;-60
2022/05/17 04:58:48;;;;;;;3.92;1.30;;;;;;;;;;360127;149;857321;-60
2022/05/17 04:59:50;;;;;;;3.71;1.29;;;;;;;;;;361862;147;859223;-59
2022/05/17 05:00:52;;;;;;;7.51;1.39;;;;;;;;;;362696;146;858240;-59
2022/05/17 05:01:54;;;;;;;3.06;1.30;;;;;;;;;;359222;147;866529;-60
2022/05/17 05:02:55;;;;;;;1.89;0.95;;;;;;;;;;359115;150;858885;-59
2022/05/17 05:03:57;;;;;;;3.22;0.91;;;;;;;;;;359155;147;857449;-60
2022/05/17 05:04:59;;;;;;;3.62;0.86;;;;;;;;;;359232;147;859552;-61
2022/05/17 05:06:01;;;;;;;2.50;0.95;;;;;;;;;;359174;150;858445;-60
2022/05/17 05:07:02;;;;;;;3.51;0.68;;;;;;;;;;359345;150;859091;-60
2022/05/17 05:08:04;;;;;;;3.87;1.09;;;;;;;;;;359287;150;859842;-60
2022/05/17 05:09:06;;;;;;;3.24;1.16;;;;;;;;;;359222;147;857468;-60
2022/05/17 05:10:08;;;;;;;2.39;0.85;;;;;;;;;;359251;147;866166;-60
2022/05/17 05:11:10;;;;;;;2.41;0.87;;;;;;;;;;359230;150;857636;-60
2022/05/17 05:12:11;;;;;;;3.81;0.90;;;;;;;;;;359332;150;858316;-62
2022/05/17 05:13:16;;;;;;;6.39;0.84;;;;;;;;;;359373;150;857139;-62
2022/05/17 05:14:18;;;;;;;3.21;0.83;;;;;;;;;;359112;150;864663;-61
2022/05/17 05:15:19;;;;;;;4.93;0.98;;;;;;;;;;360192;149;857594;-60
2022/05/17 05:16:21;;;;;;;2.11;0.71;;;;;;;;;;360184;149;857944;-61
2022/05/17 05:17:23;;;;;;;1.90;0.95;;;;;;;;;;360187;149;858968;-60
2022/05/17 05:18:25;;;;;;;1.76;0.77;;;;;;;;;;359558;147;859040;-60
2022/05/17 05:19:27;;;;;;;5.22;0.69;;;;;;;;;;364422;147;864899;-60
2022/05/17 05:20:30;;;;;;;2.76;0.98;;;;;;;;;;365943;147;864981;-63
2022/05/17 05:21:32;;;;;;;1.60;0.84;;;;;;;;;;365931;147;857307;-60
2022/05/17 05:22:34;;;;;;;2.61;0.86;;;;;;;;;;365895;147;859233;-60
2022/05/17 05:23:36;;;;;;;2.60;0.80;;;;;;;;;;365654;147;865310;-61
2022/05/17 05:24:37;;;;;;;3.16;0.90;;;;;;;;;;359201;150;864929;-62
2022/05/17 05:25:39;;;;;;;1.71;0.79;;;;;;;;;;359423;147;857309;-62
2022/05/17 05:26:41;;;;;;;2.88;0.95;;;;;;;;;;359194;150;857235;-61
2022/05/17 05:27:42;;;;;;;1.85;0.79;;;;;;;;;;359142;150;864860;-61
2022/05/17 05:28:44;;;;;;;6.01;1.00;;;;;;;;;;359178;150;857509;-60
2022/05/17 05:29:45;;;;;;;4.69;1.15;;;;;;;;;;363385;147;857386;-60
2022/05/17 05:30:48;;;;;;;4.67;1.09;;;;;;;;;;366025;147;857424;-59
2022/05/17 05:31:49;;;;;;;3.09;0.85;;;;;;;;;;363989;147;857285;-60
2022/05/17 05:32:51;;;;;;;4.13;0.88;;;;;;;;;;360247;149;857320;-61
2022/05/17 05:33:53;;;;;;;2.61;0.97;;;;;;;;;;359897;147;858820;-60
2022/05/17 05:34:54;;;;;;;2.94;0.95;;;;;;;;;;359415;147;858957;-59
2022/05/17 05:35:55;;;;;;;1.53;0.96;;;;;;;;;;359620;147;858439;-62
2022/05/17 05:36:57;;;;;;;2.35;0.91;;;;;;;;;;360174;149;858242;-60
2022/05/17 05:37:59;;;;;;;1.06;0.92;;;;;;;;;;360750;147;863979;-60
2022/05/17 05:39:00;;;;;;;3.88;0.99;;;;;;;;;;359469;147;857362;-61
2022/05/17 05:40:03;;;;;;;4.52;1.00;;;;;;;;;;359505;147;857838;-60
2022/05/17 05:41:04;;;;;;;5.31;1.17;;;;;;;;;;359249;150;865935;-60
2022/05/17 05:42:06;;;;;;;3.01;0.91;;;;;;;;;;359403;150;857238;-60
2022/05/17 05:43:08;;;;;;;3.02;1.06;;;;;;;;;;359261;150;865851;-60
2022/05/17 05:44:10;;;;;;;2.03;1.24;;;;;;;;;;359932;148;865085;-60
2022/05/17 05:45:12;;;;;;;4.09;1.09;;;;;;;;;;362218;148;865301;-60
2022/05/17 05:46:14;;;;;;;1.50;0.99;;;;;;;;;;362336;148;859171;-60
2022/05/17 05:47:16;;;;;;;3.04;1.08;;;;;;;;;;362417;148;857684;-62
2022/05/17 05:48:17;;;;;;;5.71;1.15;;;;;;;;;;359888;147;858156;-61
2022/05/17 05:49:19;;;;;;;2.35;0.92;;;;;;;;;;359310;150;857198;-61
2022/05/17 05:50:21;;;;;;;4.88;2.25;;;;;;;;;;359536;150;856769;-61
2022/05/17 05:51:24;;;;;;;3.03;0.99;;;;;;;;;;359584;150;856526;-60
2022/05/17 05:52:26;;;;;;;1.67;0.98;;;;;;;;;;359510;150;856158;-62
2022/05/17 05:53:27;;;;;;;1.74;0.87;;;;;;;;;;359644;150;857139;-60
2022/05/17 05:54:29;;;;;;;3.02;1.03;;;;;;;;;;360424;149;856193;-61
2022/05/17 05:55:31;;;;;;;5.35;1.20;;;;;;;;;;360441;149;856050;-63
2022/05/17 05:56:33;;;;;;;1.68;0.95;;;;;;;;;;363190;147;856271;-61
2022/05/17 05:57:34;;;;;;;3.24;1.32;;;;;;;;;;365919;147;863781;-60
2022/05/17 05:58:36;;;;;;;2.59;0.99;;;;;;;;;;359616;147;856319;-61
2022/05/17 05:59:38;;;;;;;5.23;0.95;;;;;;;;;;361842;147;856379;-60
2022/05/17 06:00:40;;;;;;;1.94;0.85;;;;;;;;;;359669;147;856588;-61
2022/05/17 06:01:41;;;;;;;1.83;1.01;;;;;;;;;;359598;149;864276;-61
2022/05/17 06:04:42;;;;;;;5.11;0.90;;;;;;;14.56;37.81;99761.70;373389;141;879404;-61
2022/05/17 06:05:44;;;;;;;3.46;0.87;;;;;;;14.52;37.93;99764.42;366089;147;857230;-62
2022/05/17 06:06:46;;;;;;;2.88;0.85;;;;;;;;;;366077;147;857384;-60
2022/05/17 06:07:48;;;;;;;6.24;1.24;;;;;;;;;;366055;147;858636;-60
2022/05/17 06:08:49;;;;;;;1.94;0.99;;;;;;;;;;366048;147;857710;-60